Mr Duck — WDH3774 — position and weather

sailwx.info

Track history (hours):
 
Tides and Currents Weather Stations Pressure Air Temp Water Temp Dewpoint Dewpoint Depression Visibility Wind Speed Wind Dir Waves Ship Positions

Mr Duck

Owner: Z.E.Services LLC, Breaux Bridge, LA. More information available from US FCC via Universal Licensing System and Coast Guard Vessel Documentation Center.

Last reported at 2018-Mar-04 07:03 UTC. Time now 2018-Apr-25 16:17 UTC.
Position N 29°56' W 090°13'.
Warning: this ship's position is 52 days out of date.

Length 16 m; draft 2 m.

Type: Tug. MMSI: 367610770.

Date/timePositionNaut miles runAvg speedWind from/ knotsBaromVisibWave heightAir tempDewpointWater temp
2018-Mar-04 07:03N 29°56' W 090°13'0 0.2
2018-Mar-04 06:58N 29°56' W 090°13'0 0.1
2018-Mar-04 06:21N 29°56' W 090°13'1 2.9
2018-Mar-04 06:00N 29°57' W 090°13'1 0.8
2018-Mar-04 05:11N 29°56' W 090°13'0 0.2
2018-Mar-04 04:53N 29°56' W 090°13'28 0.6
2018-Mar-02 03:57N 29°34' W 090°33'3 6.5
2018-Mar-02 03:30N 29°35' W 090°36'3 6.6
2018-Mar-02 03:00N 29°36' W 090°40'2 4.8
2018-Mar-02 02:30N 29°36' W 090°43'2 4.7
2018-Mar-02 02:00N 29°34' W 090°44'3 6.4
2018-Mar-02 01:30N 29°32' W 090°47'4 8.7
2018-Mar-02 01:00N 29°32' W 090°52'  
Track history (hours):
 
Tides and Currents Weather Stations Pressure Air Temp Water Temp Dewpoint Dewpoint Depression Visibility Wind Speed Wind Dir Waves Ship Positions

Mr Duck

Owner: Z.E.Services LLC, Breaux Bridge, LA. More information available from US FCC via Universal Licensing System and Coast Guard Vessel Documentation Center.

Last reported at 2018-Mar-04 07:03 UTC. Time now 2018-Apr-25 16:17 UTC.
Position N 29°56' W 090°13'.
Warning: this ship's position is 52 days out of date.

Length 16 m; draft 2 m.

Type: Tug. MMSI: 367610770.

Date/timePositionNaut miles runAvg speedWind from/ knotsBaromVisibWave heightAir tempDewpointWater temp
2018-Mar-04 07:03N 29°56' W 090°13'0 0.2
2018-Mar-04 06:58N 29°56' W 090°13'0 0.1
2018-Mar-04 06:21N 29°56' W 090°13'1 2.9
2018-Mar-04 06:00N 29°57' W 090°13'1 0.8
2018-Mar-04 05:11N 29°56' W 090°13'0 0.2
2018-Mar-04 04:53N 29°56' W 090°13'28 0.6
2018-Mar-02 03:57N 29°34' W 090°33'3 6.5
2018-Mar-02 03:30N 29°35' W 090°36'3 6.6
2018-Mar-02 03:00N 29°36' W 090°40'2 4.8
2018-Mar-02 02:30N 29°36' W 090°43'2 4.7
2018-Mar-02 02:00N 29°34' W 090°44'3 6.4
2018-Mar-02 01:30N 29°32' W 090°47'4 8.7
2018-Mar-02 01:00N 29°32' W 090°52'  

Dump ship's entire track history